sensor_id;sensor_type;location;lat;lon;timestamp;pressure;altitude;pressure_sealevel;temperature;humidity
53089;BME280;38968;47.696;17.540;2023-02-23T00:04:13;10021810.0;;;10.11;58.37207
53089;BME280;38968;47.696;17.540;2023-02-23T00:09:13;10021540.0;;;10.11;58.8418
53089;BME280;38968;47.696;17.540;2023-02-23T00:14:13;10021190.0;;;10.18;58.66797
53089;BME280;38968;47.696;17.540;2023-02-23T00:19:13;10022140.0;;;10.24;58.49316
53089;BME280;38968;47.696;17.540;2023-02-23T00:24:13;10021970.0;;;10.26;58.34668
53089;BME280;38968;47.696;17.540;2023-02-23T00:29:15;10021960.0;;;10.35;58.61035
53089;BME280;38968;47.696;17.540;2023-02-23T00:34:14;10021690.0;;;10.35;58.06055
53089;BME280;38968;47.696;17.540;2023-02-23T00:39:13;10022000.0;;;9.96;58.16797
53089;BME280;38968;47.696;17.540;2023-02-23T00:44:13;10021670.0;;;9.69;58.77344
53089;BME280;38968;47.696;17.540;2023-02-23T00:49:13;10022210.0;;;9.51;59.1377
53089;BME280;38968;47.696;17.540;2023-02-23T00:54:14;10021790.0;;;9.34;59.5957
53089;BME280;38968;47.696;17.540;2023-02-23T00:59:13;10022150.0;;;9.23;60.08203
53089;BME280;38968;47.696;17.540;2023-02-23T01:04:13;10021800.0;;;9.24;60.45996
53089;BME280;38968;47.696;17.540;2023-02-23T01:09:14;10022320.0;;;9.25;60.74707
53089;BME280;38968;47.696;17.540;2023-02-23T01:14:13;10022410.0;;;9.26;60.74805
53089;BME280;38968;47.696;17.540;2023-02-23T01:19:13;10022040.0;;;9.48;60.86035
53089;BME280;38968;47.696;17.540;2023-02-23T01:24:13;10021590.0;;;9.69;59.92676
53089;BME280;38968;47.696;17.540;2023-02-23T01:29:15;10021930.0;;;9.72;59.71582
53089;BME280;38968;47.696;17.540;2023-02-23T01:34:13;10021500.0;;;9.74;59.28418
53089;BME280;38968;47.696;17.540;2023-02-23T01:39:15;10021240.0;;;9.67;59.37598
53089;BME280;38968;47.696;17.540;2023-02-23T01:49:19;10021170.0;;;9.51;59.9502
53089;BME280;38968;47.696;17.540;2023-02-23T01:54:26;10020490.0;;;9.34;60.22363
53089;BME280;38968;47.696;17.540;2023-02-23T01:59:13;10020470.0;;;9.5;60.88477
53089;BME280;38968;47.696;17.540;2023-02-23T02:04:13;10019690.0;;;9.56;60.88184
53089;BME280;38968;47.696;17.540;2023-02-23T02:09:16;10020290.0;;;9.62;60.78906
53089;BME280;38968;47.696;17.540;2023-02-23T02:14:24;10019330.0;;;9.69;60.79688
53089;BME280;38968;47.696;17.540;2023-02-23T02:39:36;10018450.0;;;9.75;61.25195
53089;BME280;38968;47.696;17.540;2023-02-23T02:44:18;10018620.0;;;9.82;61.375
53089;BME280;38968;47.696;17.540;2023-02-23T02:49:32;10017910.0;;;9.96;60.56152
53089;BME280;38968;47.696;17.540;2023-02-23T02:54:18;10018940.0;;;10.04;60.71973
53089;BME280;38968;47.696;17.540;2023-02-23T02:59:15;10018860.0;;;10;60.87598
53089;BME280;38968;47.696;17.540;2023-02-23T03:04:23;10018510.0;;;10.03;61.02832
53089;BME280;38968;47.696;17.540;2023-02-23T03:14:39;10019740.0;;;9.87;61.22266
53089;BME280;38968;47.696;17.540;2023-02-23T03:19:21;10018770.0;;;9.98;61.75293
53089;BME280;38968;47.696;17.540;2023-02-23T03:24:29;10019110.0;;;10.06;61.86719
53089;BME280;38968;47.696;17.540;2023-02-23T03:29:29;10019710.0;;;10.14;62.02734
53089;BME280;38968;47.696;17.540;2023-02-23T03:34:26;10019880.0;;;10.22;62.1875
53089;BME280;38968;47.696;17.540;2023-02-23T03:39:18;10019880.0;;;10.26;62.41113
53089;BME280;38968;47.696;17.540;2023-02-23T03:44:16;10019520.0;;;10.35;62.40137
53089;BME280;38968;47.696;17.540;2023-02-23T03:49:14;10019510.0;;;10.42;62.83496
53089;BME280;38968;47.696;17.540;2023-02-23T03:54:17;10019760.0;;;10.47;62.69238
53089;BME280;38968;47.696;17.540;2023-02-23T03:59:14;10020010.0;;;10.61;62.54102
53089;BME280;38968;47.696;17.540;2023-02-23T04:04:13;10020000.0;;;10.64;62.60156
53089;BME280;38968;47.696;17.540;2023-02-23T04:09:13;10020690.0;;;10.69;62.59961
53089;BME280;38968;47.696;17.540;2023-02-23T04:14:24;10020170.0;;;10.74;62.55957
53089;BME280;38968;47.696;17.540;2023-02-23T04:19:13;10019730.0;;;10.72;62.52148
53089;BME280;38968;47.696;17.540;2023-02-23T04:24:13;10020080.0;;;10.75;62.48047
53089;BME280;38968;47.696;17.540;2023-02-23T04:29:13;10020420.0;;;10.79;62.40527
53089;BME280;38968;47.696;17.540;2023-02-23T04:34:13;10020150.0;;;10.86;62.21094
53089;BME280;38968;47.696;17.540;2023-02-23T04:39:13;10020320.0;;;10.89;62.08887
53089;BME280;38968;47.696;17.540;2023-02-23T04:44:13;10020320.0;;;10.92;62.02344
53089;BME280;38968;47.696;17.540;2023-02-23T04:49:13;10020240.0;;;10.87;61.99414
53089;BME280;38968;47.696;17.540;2023-02-23T04:54:13;10020920.0;;;10.95;61.67285
53089;BME280;38968;47.696;17.540;2023-02-23T04:59:13;10021080.0;;;11.04;61.47949
53089;BME280;38968;47.696;17.540;2023-02-23T05:04:13;10020820.0;;;11.06;61.17188
53089;BME280;38968;47.696;17.540;2023-02-23T05:09:13;10020740.0;;;11.04;60.93945
53089;BME280;38968;47.696;17.540;2023-02-23T05:14:13;10021160.0;;;11.09;60.87793
53089;BME280;38968;47.696;17.540;2023-02-23T05:19:13;10021950.0;;;11.06;60.88574
53089;BME280;38968;47.696;17.540;2023-02-23T05:24:13;10021680.0;;;11.12;60.7334
53089;BME280;38968;47.696;17.540;2023-02-23T05:29:13;10022190.0;;;11.2;60.45801
53089;BME280;38968;47.696;17.540;2023-02-23T05:34:13;10022800.0;;;11.2;60.40039
53089;BME280;38968;47.696;17.540;2023-02-23T05:39:15;10022630.0;;;11.19;60.36621
53089;BME280;38968;47.696;17.540;2023-02-23T05:44:13;10022900.0;;;11.16;60.22363
53089;BME280;38968;47.696;17.540;2023-02-23T05:49:13;10023320.0;;;11.25;59.97168
53089;BME280;38968;47.696;17.540;2023-02-23T05:54:13;10023450.0;;;10.98;60.67969
53089;BME280;38968;47.696;17.540;2023-02-23T05:59:13;10024320.0;;;10.95;60.42383
53089;BME280;38968;47.696;17.540;2023-02-23T06:04:13;10024990.0;;;11.16;59.51172
53089;BME280;38968;47.696;17.540;2023-02-23T06:09:13;10025070.0;;;11.21;59.89844
53089;BME280;38968;47.696;17.540;2023-02-23T06:14:13;10025140.0;;;11.34;59.50195
53089;BME280;38968;47.696;17.540;2023-02-23T06:19:13;10026110.0;;;11.24;59.33887
53089;BME280;38968;47.696;17.540;2023-02-23T06:24:13;10027070.0;;;11.22;58.95801
53089;BME280;38968;47.696;17.540;2023-02-23T06:29:13;10027310.0;;;11.41;58.66113
53089;BME280;38968;47.696;17.540;2023-02-23T06:34:13;10028080.0;;;11.48;58.26855
53089;BME280;38968;47.696;17.540;2023-02-23T06:39:13;10028430.0;;;11.49;58.29297
53089;BME280;38968;47.696;17.540;2023-02-23T06:44:13;10027830.0;;;11.42;58.31836
53089;BME280;38968;47.696;17.540;2023-02-23T06:49:13;10028710.0;;;11.4;58.14258
53089;BME280;38968;47.696;17.540;2023-02-23T06:54:13;10029210.0;;;11.52;57.99805
53089;BME280;38968;47.696;17.540;2023-02-23T06:59:13;10028850.0;;;11.59;57.98438
53089;BME280;38968;47.696;17.540;2023-02-23T07:04:13;10030080.0;;;11.53;58.12402
53089;BME280;38968;47.696;17.540;2023-02-23T07:09:16;10030270.0;;;11.46;57.74805
53089;BME280;38968;47.696;17.540;2023-02-23T07:14:13;10030020.0;;;11.38;57.99219
53089;BME280;38968;47.696;17.540;2023-02-23T07:19:16;10030270.0;;;11.46;57.54199
53089;BME280;38968;47.696;17.540;2023-02-23T07:24:13;10030160.0;;;11.61;57.41211
53089;BME280;38968;47.696;17.540;2023-02-23T07:29:13;10031100.0;;;11.72;56.69141
53089;BME280;38968;47.696;17.540;2023-02-23T07:34:13;10030390.0;;;11.82;56.3125
53089;BME280;38968;47.696;17.540;2023-02-23T07:39:14;10030310.0;;;11.75;56.23535
53089;BME280;38968;47.696;17.540;2023-02-23T07:44:13;10031370.0;;;11.65;56.48633
53089;BME280;38968;47.696;17.540;2023-02-23T07:49:13;10031670.0;;;12.02;55.94629
53089;BME280;38968;47.696;17.540;2023-02-23T07:54:13;10032070.0;;;12.21;55.26855
53089;BME280;38968;47.696;17.540;2023-02-23T07:59:13;10032580.0;;;12.3;54.70508
53089;BME280;38968;47.696;17.540;2023-02-23T08:04:13;10032500.0;;;12.22;55.24805
53089;BME280;38968;47.696;17.540;2023-02-23T08:09:13;10032750.0;;;12.3;54.71484
53089;BME280;38968;47.696;17.540;2023-02-23T08:14:13;10032030.0;;;12.43;54.22461
53089;BME280;38968;47.696;17.540;2023-02-23T08:19:13;10031430.0;;;12.38;54.55273
53089;BME280;38968;47.696;17.540;2023-02-23T08:24:13;10032060.0;;;12.74;53.74414
53089;BME280;38968;47.696;17.540;2023-02-23T08:29:13;10033070.0;;;12.92;53.55859
53089;BME280;38968;47.696;17.540;2023-02-23T08:34:13;10032660.0;;;13.22;52.46387
53089;BME280;38968;47.696;17.540;2023-02-23T08:39:13;10032990.0;;;13.3;51.83691
53089;BME280;38968;47.696;17.540;2023-02-23T08:44:13;10033260.0;;;13.3;51.9873
53089;BME280;38968;47.696;17.540;2023-02-23T08:49:13;10032800.0;;;13.39;51.60449
53089;BME280;38968;47.696;17.540;2023-02-23T08:54:13;10033300.0;;;13.49;51.11914
53089;BME280;38968;47.696;17.540;2023-02-23T08:59:14;10033310.0;;;13.48;51.18652
53089;BME280;38968;47.696;17.540;2023-02-23T09:04:13;10033200.0;;;13.55;51.20703
53089;BME280;38968;47.696;17.540;2023-02-23T09:09:13;10033350.0;;;13.65;51.19531
53089;BME280;38968;47.696;17.540;2023-02-23T09:14:13;10032980.0;;;13.38;51.15332
53089;BME280;38968;47.696;17.540;2023-02-23T09:19:13;10033480.0;;;13.47;51.33691
53089;BME280;38968;47.696;17.540;2023-02-23T09:24:13;10033940.0;;;13.38;51.64941
53089;BME280;38968;47.696;17.540;2023-02-23T09:29:13;10034990.0;;;13.38;51.66113
53089;BME280;38968;47.696;17.540;2023-02-23T09:34:13;10035480.0;;;13.53;51.66699
53089;BME280;38968;47.696;17.540;2023-02-23T09:39:13;10034890.0;;;13.43;51.67871
53089;BME280;38968;47.696;17.540;2023-02-23T09:49:17;10034910.0;;;13.73;51.00684
53089;BME280;38968;47.696;17.540;2023-02-23T09:54:14;10035050.0;;;13.53;51.32031
53089;BME280;38968;47.696;17.540;2023-02-23T09:59:15;10035470.0;;;13.6;51.14453
53089;BME280;38968;47.696;17.540;2023-02-23T10:04:27;10034650.0;;;13.73;50.82227
53089;BME280;38968;47.696;17.540;2023-02-23T10:09:27;10034840.0;;;13.65;51.14844
53089;BME280;38968;47.696;17.540;2023-02-23T10:19:25;10035300.0;;;13.92;50.37109
53089;BME280;38968;47.696;17.540;2023-02-23T10:24:24;10034480.0;;;14.07;50.21289
53089;BME280;38968;47.696;17.540;2023-02-23T10:29:21;10034250.0;;;14.28;49.78516
53089;BME280;38968;47.696;17.540;2023-02-23T10:34:15;10033840.0;;;14.52;49.04688
53089;BME280;38968;47.696;17.540;2023-02-23T10:39:13;10033270.0;;;14.68;48.4502
53089;BME280;38968;47.696;17.540;2023-02-23T10:44:18;10032820.0;;;14.71;48.39453
53089;BME280;38968;47.696;17.540;2023-02-23T10:49:18;10032580.0;;;15.25;47.58301
53089;BME280;38968;47.696;17.540;2023-02-23T10:54:36;10031530.0;;;15.5;47.13281
53089;BME280;38968;47.696;17.540;2023-02-23T10:59:17;10031380.0;;;15.97;46.13574
53089;BME280;38968;47.696;17.540;2023-02-23T11:04:24;10031010.0;;;16.56;44.97168
53089;BME280;38968;47.696;17.540;2023-02-23T11:09:24;10030790.0;;;16.67;44.3291
53089;BME280;38968;47.696;17.540;2023-02-23T11:14:15;10030110.0;;;17.1;44.05664
53089;BME280;38968;47.696;17.540;2023-02-23T11:19:23;10029570.0;;;17.79;42.26465
53089;BME280;38968;47.696;17.540;2023-02-23T11:24:35;10029110.0;;;18.04;41.35156
53089;BME280;38968;47.696;17.540;2023-02-23T11:29:29;10029050.0;;;18.38;41.25391
53089;BME280;38968;47.696;17.540;2023-02-23T11:34:18;10028010.0;;;18.75;40.79395
53089;BME280;38968;47.696;17.540;2023-02-23T11:39:20;10028060.0;;;19.94;37.98438
53089;BME280;38968;47.696;17.540;2023-02-23T11:44:20;10027740.0;;;20.22;37.75977
53089;BME280;38968;47.696;17.540;2023-02-23T11:49:17;10026980.0;;;21;35.22656
53089;BME280;38968;47.696;17.540;2023-02-23T11:54:30;10026350.0;;;20.35;36.40234
53089;BME280;38968;47.696;17.540;2023-02-23T11:59:14;10025380.0;;;20.16;36.91797
53089;BME280;38968;47.696;17.540;2023-02-23T12:04:29;10025450.0;;;19.85;37.36328
53089;BME280;38968;47.696;17.540;2023-02-23T12:09:26;10025590.0;;;19.39;38.38379
53089;BME280;38968;47.696;17.540;2023-02-23T12:14:28;10024890.0;;;18.81;39.28516
53089;BME280;38968;47.696;17.540;2023-02-23T12:24:22;10023290.0;;;19.2;38.30859
53089;BME280;38968;47.696;17.540;2023-02-23T12:34:21;10021980.0;;;19;39.1377
53089;BME280;38968;47.696;17.540;2023-02-23T12:39:20;10020970.0;;;19.26;38.74902
53089;BME280;38968;47.696;17.540;2023-02-23T12:44:31;10021220.0;;;18.92;39.4834
53089;BME280;38968;47.696;17.540;2023-02-23T12:49:45;10019840.0;;;18.65;40.24609
53089;BME280;38968;47.696;17.540;2023-02-23T12:54:14;10019680.0;;;19.01;39.91309
53089;BME280;38968;47.696;17.540;2023-02-23T12:59:19;10018930.0;;;18.9;39.46875
53089;BME280;38968;47.696;17.540;2023-02-23T13:04:31;10018710.0;;;18.43;40.625
53089;BME280;38968;47.696;17.540;2023-02-23T13:09:39;10019730.0;;;17.93;41.21094
53089;BME280;38968;47.696;17.540;2023-02-23T13:24:26;10018800.0;;;18.03;39.79102
53089;BME280;38968;47.696;17.540;2023-02-23T13:34:17;10018980.0;;;17.4;40.4834
53089;BME280;38968;47.696;17.540;2023-02-23T13:44:33;10018430.0;;;16.78;42.33203
53089;BME280;38968;47.696;17.540;2023-02-23T13:49:29;10017790.0;;;17.06;41.53906
53089;BME280;38968;47.696;17.540;2023-02-23T13:59:18;10017690.0;;;17.08;41.15625
53089;BME280;38968;47.696;17.540;2023-02-23T14:04:14;10017650.0;;;16.52;42.11914
53089;BME280;38968;47.696;17.540;2023-02-23T14:09:20;10017200.0;;;16.54;42.14453
53089;BME280;38968;47.696;17.540;2023-02-23T14:14:19;10017520.0;;;16.86;41.88379
53089;BME280;38968;47.696;17.540;2023-02-23T14:24:23;10016530.0;;;17.14;41.29004
53089;BME280;38968;47.696;17.540;2023-02-23T14:29:24;10016830.0;;;17.68;40.09863
53089;BME280;38968;47.696;17.540;2023-02-23T14:34:13;10016130.0;;;17.65;40.20117
53089;BME280;38968;47.696;17.540;2023-02-23T14:39:18;10016730.0;;;17.91;40.06055
53089;BME280;38968;47.696;17.540;2023-02-23T14:44:14;10017140.0;;;17.77;40.03711
53089;BME280;38968;47.696;17.540;2023-02-23T14:49:20;10015870.0;;;17.65;39.9668
53089;BME280;38968;47.696;17.540;2023-02-23T14:54:33;10016600.0;;;17.4;40.09668
53089;BME280;38968;47.696;17.540;2023-02-23T14:59:21;10016780.0;;;17.16;40.74219
53089;BME280;38968;47.696;17.540;2023-02-23T15:04:18;10017470.0;;;17.2;40.66406
53089;BME280;38968;47.696;17.540;2023-02-23T15:09:18;10017070.0;;;17.09;40.56152
53089;BME280;38968;47.696;17.540;2023-02-23T15:14:14;10016160.0;;;16.95;40.89844
53089;BME280;38968;47.696;17.540;2023-02-23T15:19:33;10016600.0;;;16.74;41.7666
53089;BME280;38968;47.696;17.540;2023-02-23T15:24:13;10015940.0;;;16.61;41.74219
53089;BME280;38968;47.696;17.540;2023-02-23T15:29:14;10015710.0;;;16.53;41.80566
53089;BME280;38968;47.696;17.540;2023-02-23T15:34:15;10015930.0;;;16.4;42.42383
53089;BME280;38968;47.696;17.540;2023-02-23T15:39:15;10015900.0;;;16.7;42.21777
53089;BME280;38968;47.696;17.540;2023-02-23T15:49:13;10015640.0;;;16.7;41.78613
53089;BME280;38968;47.696;17.540;2023-02-23T15:54:30;10015990.0;;;16.48;42.03418
53089;BME280;38968;47.696;17.540;2023-02-23T15:59:21;10016020.0;;;16.39;42.42285
53089;BME280;38968;47.696;17.540;2023-02-23T16:04:17;10015440.0;;;16.31;42.69531
53089;BME280;38968;47.696;17.540;2023-02-23T16:09:20;10015880.0;;;16.29;42.70508
53089;BME280;38968;47.696;17.540;2023-02-23T16:14:14;10015280.0;;;16.27;42.93555
53089;BME280;38968;47.696;17.540;2023-02-23T16:19:14;10015450.0;;;16.28;42.82031
53089;BME280;38968;47.696;17.540;2023-02-23T16:24:14;10015390.0;;;16.21;43.19824
53089;BME280;38968;47.696;17.540;2023-02-23T16:29:16;10015090.0;;;16.06;43.92969
53089;BME280;38968;47.696;17.540;2023-02-23T16:34:33;10015870.0;;;15.85;44.45703
53089;BME280;38968;47.696;17.540;2023-02-23T16:39:14;10015950.0;;;15.61;44.98047
53089;BME280;38968;47.696;17.540;2023-02-23T16:44:16;10015990.0;;;15.48;45.15332
53089;BME280;38968;47.696;17.540;2023-02-23T16:49:13;10016660.0;;;15.32;45.625
53089;BME280;38968;47.696;17.540;2023-02-23T16:54:14;10016750.0;;;15.31;45.50781
53089;BME280;38968;47.696;17.540;2023-02-23T16:59:14;10017000.0;;;15.08;46.05273
53089;BME280;38968;47.696;17.540;2023-02-23T17:04:15;10016940.0;;;15;46.0332
53089;BME280;38968;47.696;17.540;2023-02-23T17:09:13;10017240.0;;;14.87;46.29883
53089;BME280;38968;47.696;17.540;2023-02-23T17:14:22;10017520.0;;;14.83;46.58496
53089;BME280;38968;47.696;17.540;2023-02-23T17:19:14;10017120.0;;;14.71;46.71191
53089;BME280;38968;47.696;17.540;2023-02-23T17:24:13;10017090.0;;;14.51;47.4209
53089;BME280;38968;47.696;17.540;2023-02-23T17:29:13;10017460.0;;;14.73;46.24902
53089;BME280;38968;47.696;17.540;2023-02-23T17:34:13;10016520.0;;;14.35;47.55566
53089;BME280;38968;47.696;17.540;2023-02-23T17:39:14;10016290.0;;;14.54;46.84375
53089;BME280;38968;47.696;17.540;2023-02-23T17:44:13;10017000.0;;;14.21;47.72559
53089;BME280;38968;47.696;17.540;2023-02-23T17:49:13;10016020.0;;;14.26;47.25586
53089;BME280;38968;47.696;17.540;2023-02-23T17:54:15;10014750.0;;;14.09;47.85254
53089;BME280;38968;47.696;17.540;2023-02-23T17:59:13;10015330.0;;;14.22;47.50586
53089;BME280;38968;47.696;17.540;2023-02-23T18:04:15;10015170.0;;;14.14;47.61426
53089;BME280;38968;47.696;17.540;2023-02-23T18:09:14;10014840.0;;;14.08;47.82715
53089;BME280;38968;47.696;17.540;2023-02-23T18:14:14;10015650.0;;;14;48.20215
53089;BME280;38968;47.696;17.540;2023-02-23T18:19:15;10015630.0;;;14.09;47.8291
53089;BME280;38968;47.696;17.540;2023-02-23T18:24:14;10015450.0;;;13.77;48.47754
53089;BME280;38968;47.696;17.540;2023-02-23T18:29:14;10014970.0;;;13.95;47.8125
53089;BME280;38968;47.696;17.540;2023-02-23T18:34:14;10015120.0;;;14.02;47.88965
53089;BME280;38968;47.696;17.540;2023-02-23T18:39:14;10015290.0;;;14.04;47.66113
53089;BME280;38968;47.696;17.540;2023-02-23T18:44:16;10015050.0;;;13.95;47.97559
53089;BME280;38968;47.696;17.540;2023-02-23T18:49:16;10015370.0;;;13.77;48.24609
53089;BME280;38968;47.696;17.540;2023-02-23T18:54:15;10014940.0;;;13.71;48.35547
53089;BME280;38968;47.696;17.540;2023-02-23T18:59:14;10015060.0;;;13.61;48.64453
53089;BME280;38968;47.696;17.540;2023-02-23T19:04:14;10014760.0;;;13.73;48.42676
53089;BME280;38968;47.696;17.540;2023-02-23T19:09:14;10014990.0;;;13.53;48.91309
53089;BME280;38968;47.696;17.540;2023-02-23T19:14:15;10014640.0;;;13.51;49.12012
53089;BME280;38968;47.696;17.540;2023-02-23T19:19:17;10015270.0;;;13.48;49.33691
53089;BME280;38968;47.696;17.540;2023-02-23T19:24:14;10014810.0;;;13.56;48.80176
53089;BME280;38968;47.696;17.540;2023-02-23T19:29:14;10015450.0;;;13.45;49.07813
53089;BME280;38968;47.696;17.540;2023-02-23T19:34:14;10014830.0;;;13.47;48.83789
53089;BME280;38968;47.696;17.540;2023-02-23T19:39:15;10015710.0;;;13.48;48.38672
53089;BME280;38968;47.696;17.540;2023-02-23T19:44:15;10016260.0;;;13.35;48.91797
53089;BME280;38968;47.696;17.540;2023-02-23T19:49:15;10015580.0;;;13.3;49.23438
53089;BME280;38968;47.696;17.540;2023-02-23T19:54:14;10014940.0;;;13.39;49.02441
53089;BME280;38968;47.696;17.540;2023-02-23T19:59:14;10015040.0;;;13.34;49.32031
53089;BME280;38968;47.696;17.540;2023-02-23T20:04:14;10014150.0;;;13.39;49.11719
53089;BME280;38968;47.696;17.540;2023-02-23T20:09:14;10015310.0;;;13.3;49.73242
53089;BME280;38968;47.696;17.540;2023-02-23T20:14:14;10013810.0;;;13.33;49.94531
53089;BME280;38968;47.696;17.540;2023-02-23T20:19:14;10013460.0;;;13.36;49.60059
53089;BME280;38968;47.696;17.540;2023-02-23T20:24:14;10012850.0;;;13.32;49.68848
53089;BME280;38968;47.696;17.540;2023-02-23T20:29:14;10013020.0;;;13.36;49.61328
53089;BME280;38968;47.696;17.540;2023-02-23T20:34:15;10012550.0;;;13.12;50.08203
53089;BME280;38968;47.696;17.540;2023-02-23T20:39:15;10013080.0;;;13.09;50.33301
53089;BME280;38968;47.696;17.540;2023-02-23T20:44:14;10010970.0;;;13.15;50.13086
53089;BME280;38968;47.696;17.540;2023-02-23T20:49:13;10011040.0;;;13.22;50.33594
53089;BME280;38968;47.696;17.540;2023-02-23T20:54:14;10011130.0;;;13.21;49.82617
53089;BME280;38968;47.696;17.540;2023-02-23T20:59:14;10010020.0;;;13.11;49.93066
53089;BME280;38968;47.696;17.540;2023-02-23T21:04:14;10009330.0;;;13.07;49.6709
53089;BME280;38968;47.696;17.540;2023-02-23T21:09:14;10009270.0;;;12.94;50.24707
53089;BME280;38968;47.696;17.540;2023-02-23T21:14:15;10008740.0;;;12.97;49.78711
53089;BME280;38968;47.696;17.540;2023-02-23T21:19:15;10008840.0;;;12.92;50.16309
53089;BME280;38968;47.696;17.540;2023-02-23T21:24:15;10008580.0;;;12.92;49.85059
53089;BME280;38968;47.696;17.540;2023-02-23T21:29:14;10008030.0;;;13.02;49.59668
53089;BME280;38968;47.696;17.540;2023-02-23T21:34:14;10007160.0;;;12.99;49.69727
53089;BME280;38968;47.696;17.540;2023-02-23T21:39:13;10006640.0;;;12.96;49.77441
53089;BME280;38968;47.696;17.540;2023-02-23T21:44:14;10006200.0;;;12.98;49.46484
53089;BME280;38968;47.696;17.540;2023-02-23T21:49:15;10006770.0;;;12.81;49.60742
53089;BME280;38968;47.696;17.540;2023-02-23T21:54:14;10006630.0;;;13;49.39844
53089;BME280;38968;47.696;17.540;2023-02-23T21:59:13;10005690.0;;;12.93;49.43652
53089;BME280;38968;47.696;17.540;2023-02-23T22:04:13;10005420.0;;;12.96;49.7168
53089;BME280;38968;47.696;17.540;2023-02-23T22:09:13;10005580.0;;;13;49.45605
53089;BME280;38968;47.696;17.540;2023-02-23T22:14:14;10005410.0;;;13.01;49.63086
53089;BME280;38968;47.696;17.540;2023-02-23T22:19:14;10005240.0;;;12.95;49.78516
53089;BME280;38968;47.696;17.540;2023-02-23T22:24:14;10003740.0;;;12.68;50.27344
53089;BME280;38968;47.696;17.540;2023-02-23T22:29:13;10003590.0;;;12.56;50.89453
53089;BME280;38968;47.696;17.540;2023-02-23T22:34:13;10002990.0;;;12.85;49.94629
53089;BME280;38968;47.696;17.540;2023-02-23T22:39:13;10002290.0;;;12.86;49.86719
53089;BME280;38968;47.696;17.540;2023-02-23T22:44:15;10002920.0;;;12.81;50.09375
53089;BME280;38968;47.696;17.540;2023-02-23T22:49:13;10002130.0;;;12.81;50.34766
53089;BME280;38968;47.696;17.540;2023-02-23T22:54:13;10001230.0;;;12.93;50.0957
53089;BME280;38968;47.696;17.540;2023-02-23T22:59:13;10001130.0;;;12.97;49.76465
53089;BME280;38968;47.696;17.540;2023-02-23T23:04:13;10000980.0;;;12.87;50.2959
53089;BME280;38968;47.696;17.540;2023-02-23T23:09:13;10000820.0;;;12.81;50.59082
53089;BME280;38968;47.696;17.540;2023-02-23T23:14:13;10000070.0;;;12.66;51.37988
53089;BME280;38968;47.696;17.540;2023-02-23T23:19:16;9998717;;;12.47;52.50098
53089;BME280;38968;47.696;17.540;2023-02-23T23:24:13;9998445;;;12.52;52.0332
53089;BME280;38968;47.696;17.540;2023-02-23T23:29:13;9998461;;;12.44;52.47461
53089;BME280;38968;47.696;17.540;2023-02-23T23:34:13;9997335;;;12.41;52.53906
53089;BME280;38968;47.696;17.540;2023-02-23T23:39:17;9996664;;;12.65;51.62012
53089;BME280;38968;47.696;17.540;2023-02-23T23:44:15;9995065;;;12.74;51.2168
53089;BME280;38968;47.696;17.540;2023-02-23T23:49:15;9994695;;;12.82;50.9834
53089;BME280;38968;47.696;17.540;2023-02-23T23:54:15;9994192;;;12.73;51.01953
53089;BME280;38968;47.696;17.540;2023-02-23T23:59:15;9993409;;;12.72;51.09766
